Time;durP1;ratioP1;P1;durP2;ratioP2;P2;SDS_P1;SDS_P2;PMS_P1;PMS_P2;Temp;Humidity;BMP_temperature;BMP_pressure;BME280_temperature;BME280_humidity;BME280_pressure;Samples;Min_cycle;Max_cycle;Signal;HPM_P1;HPM_P2
2023/08/24 00:00:37;;;;;;;2.73;2.53;;;28.80;61.10;;;;;;5033395;28;20250;-72
2023/08/24 00:03:03;;;;;;;2.67;2.47;;;28.80;61.10;;;;;;5033529;28;20184;-72
2023/08/24 00:05:29;;;;;;;3.27;2.70;;;28.80;61.10;;;;;;5033390;28;20486;-72
2023/08/24 00:07:55;;;;;;;2.90;2.60;;;28.80;61.10;;;;;;5015882;28;20445;-72
2023/08/24 00:10:20;;;;;;;2.80;2.50;;;28.80;61.10;;;;;;5033306;28;20564;-72
2023/08/24 00:12:46;;;;;;;2.73;2.53;;;28.80;61.10;;;;;;5032513;28;20221;-73
2023/08/24 00:15:11;;;;;;;2.87;2.63;;;28.80;61.10;;;;;;5033345;28;20199;-72
2023/08/24 00:17:37;;;;;;;2.87;2.57;;;28.80;61.10;;;;;;5033363;28;20176;-72
2023/08/24 00:20:07;;;;;;;2.43;2.30;;;28.80;61.10;;;;;;5032870;28;20195;-72
2023/08/24 00:22:33;;;;;;;2.60;2.40;;;28.80;61.10;;;;;;5033093;28;20406;-72
2023/08/24 00:24:59;;;;;;;2.90;2.70;;;28.80;61.20;;;;;;5031738;28;20411;-72
2023/08/24 00:27:24;;;;;;;3.03;2.10;;;28.80;61.20;;;;;;5033042;28;20171;-72
2023/08/24 00:29:50;;;;;;;2.97;2.70;;;28.80;61.10;;;;;;5032993;28;20262;-72
2023/08/24 00:32:15;;;;;;;2.70;2.50;;;28.80;61.10;;;;;;5032883;28;20710;-72
2023/08/24 00:34:41;;;;;;;2.23;2.03;;;28.80;61.20;;;;;;5032845;28;20180;-72
2023/08/24 00:37:06;;;;;;;2.60;2.40;;;28.80;61.20;;;;;;5032829;28;20168;-72
2023/08/24 00:39:32;;;;;;;3.00;2.67;;;28.80;61.20;;;;;;5032767;28;20269;-72
2023/08/24 00:41:58;;;;;;;2.87;2.63;;;28.80;61.30;;;;;;5015175;28;20629;-72
2023/08/24 00:44:23;;;;;;;2.40;2.20;;;28.80;61.20;;;;;;5032724;28;20255;-72
2023/08/24 00:46:49;;;;;;;2.10;1.90;;;28.80;61.30;;;;;;5015006;28;20267;-72
2023/08/24 00:49:15;;;;;;;2.50;2.30;;;28.80;61.30;;;;;;5032622;28;20187;-72
2023/08/24 00:51:41;;;;;;;2.50;2.30;;;28.80;61.30;;;;;;5032803;28;20192;-72
2023/08/24 00:54:06;;;;;;;2.33;2.13;;;28.80;61.30;;;;;;5032562;28;20534;-72
2023/08/24 00:56:32;;;;;;;3.50;2.73;;;28.80;61.30;;;;;;5014894;28;20187;-72
2023/08/24 00:58:58;;;;;;;2.60;2.40;;;28.80;61.30;;;;;;5032425;28;20624;-72
2023/08/24 01:01:24;;;;;;;2.30;2.10;;;28.80;62.10;;;;;;5032106;28;20473;-72
2023/08/24 01:03:50;;;;;;;2.10;1.90;;;28.80;61.30;;;;;;5032329;28;20179;-72
2023/08/24 01:06:15;;;;;;;2.23;2.03;;;28.80;61.40;;;;;;5032328;28;20425;-71
2023/08/24 01:08:42;;;;;;;2.57;2.37;;;28.80;62.20;;;;;;5032387;28;20544;-72
2023/08/24 01:11:13;;;;;;;2.67;2.47;;;28.80;61.30;;;;;;5032312;28;20187;-71
2023/08/24 01:13:51;;;;;;;1.80;1.70;;;28.80;61.40;;;;;;5032360;28;20449;-72
2023/08/24 01:16:21;;;;;;;2.30;2.10;;;28.80;61.40;;;;;;5032651;28;20394;-72
2023/08/24 01:18:47;;;;;;;2.27;2.07;;;28.80;61.40;;;;;;5032363;28;20398;-72
2023/08/24 01:21:15;;;;;;;2.70;2.50;;;28.80;61.40;;;;;;5032159;28;20453;-72
2023/08/24 01:23:56;;;;;;;2.33;2.13;;;28.80;61.40;;;;;;5032265;28;20414;-72
2023/08/24 01:26:22;;;;;;;2.67;2.10;;;28.80;61.40;;;;;;5036437;28;20395;-72
2023/08/24 01:28:48;;;;;;;2.10;2.00;;;28.80;61.50;;;;;;5036166;28;20998;-71
2023/08/24 01:31:17;;;;;;;2.50;2.30;;;28.80;61.50;;;;;;5036016;28;20434;-71
2023/08/24 01:33:44;;;;;;;3.03;2.73;;;28.80;61.50;;;;;;5036121;28;20176;-73
2023/08/24 01:36:12;;;;;;;2.50;2.30;;;28.80;61.50;;;;;;5036280;28;20493;-73
2023/08/24 01:38:38;;;;;;;2.40;2.20;;;28.80;61.50;;;;;;5036186;28;20468;-73
2023/08/24 01:41:20;;;;;;;2.83;2.37;;;28.80;61.50;;;;;;5035850;28;20462;-72
2023/08/24 01:43:52;;;;;;;2.87;2.67;;;28.80;61.60;;;;;;5036174;28;20481;-72
2023/08/24 01:46:19;;;;;;;2.87;2.67;;;28.80;61.50;;;;;;5036079;28;20391;-72
2023/08/24 01:48:45;;;;;;;2.17;1.97;;;28.80;61.50;;;;;;5018197;28;21308;-71
2023/08/24 01:51:11;;;;;;;2.50;2.30;;;28.80;61.50;;;;;;5035814;28;20438;-71
2023/08/24 01:53:39;;;;;;;2.30;2.10;;;28.80;61.50;;;;;;5035605;28;20168;-72
2023/08/24 01:56:16;;;;;;;2.40;2.20;;;28.80;61.50;;;;;;5035754;28;20459;-72
2023/08/24 01:58:42;;;;;;;2.40;2.20;;;28.80;61.50;;;;;;5035729;28;20914;-72
2023/08/24 02:01:10;;;;;;;2.30;2.10;;;28.80;61.50;;;;;;5035360;28;20472;-72
2023/08/24 02:03:35;;;;;;;3.40;2.57;;;28.80;61.60;;;;;;5035614;28;20160;-71
2023/08/24 02:06:01;;;;;;;2.40;2.20;;;28.80;61.60;;;;;;5035494;28;20474;-71
2023/08/24 02:08:27;;;;;;;3.10;2.23;;;28.80;61.60;;;;;;5035441;28;20266;-72
2023/08/24 02:10:53;;;;;;;2.43;2.23;;;28.80;61.60;;;;;;5017833;28;20604;-72
2023/08/24 02:13:18;;;;;;;2.40;2.20;;;28.80;61.60;;;;;;5035393;28;20176;-72
2023/08/24 02:15:44;;;;;;;2.23;2.03;;;28.80;61.60;;;;;;5017650;28;20186;-72
2023/08/24 02:18:10;;;;;;;1.80;1.70;;;28.80;61.60;;;;;;5035388;28;20601;-72
2023/08/24 02:20:37;;;;;;;2.47;2.27;;;28.80;61.60;;;;;;5050522;28;20203;-72
2023/08/24 02:23:03;;;;;;;2.57;2.37;;;28.80;61.60;;;;;;5035143;28;20251;-72
2023/08/24 02:25:29;;;;;;;2.10;1.90;;;28.80;61.70;;;;;;5035261;28;20827;-72
2023/08/24 02:27:54;;;;;;;2.63;2.00;;;28.80;61.60;;;;;;5017385;28;20415;-72
2023/08/24 02:30:20;;;;;;;2.10;1.90;;;28.80;61.60;;;;;;5035049;28;20228;-71
2023/08/24 02:32:45;;;;;;;2.17;1.97;;;28.80;61.70;;;;;;5017385;28;20180;-72
2023/08/24 02:35:11;;;;;;;1.90;1.80;;;28.80;61.70;;;;;;5017233;28;20599;-72
2023/08/24 02:37:37;;;;;;;2.30;2.10;;;28.80;61.70;;;;;;5034051;28;20203;-72
2023/08/24 02:40:03;;;;;;;2.30;2.10;;;28.80;61.70;;;;;;5034789;28;20195;-71
2023/08/24 02:42:31;;;;;;;2.27;2.07;;;28.80;61.70;;;;;;5035356;28;20224;-71
2023/08/24 02:44:57;;;;;;;2.80;2.60;;;28.80;61.70;;;;;;5034949;28;20465;-72
2023/08/24 02:47:22;;;;;;;2.47;2.20;;;28.80;61.80;;;;;;5034670;28;20458;-72
2023/08/24 02:49:48;;;;;;;2.50;2.30;;;28.80;61.70;;;;;;5017105;28;20179;-72
2023/08/24 02:52:14;;;;;;;2.20;2.00;;;28.80;61.70;;;;;;5034680;28;20222;-72
2023/08/24 02:54:39;;;;;;;2.17;1.97;;;28.80;61.80;;;;;;5034781;28;20476;-72
2023/08/24 02:57:05;;;;;;;2.07;1.87;;;28.80;61.70;;;;;;5034582;28;20183;-72
2023/08/24 02:59:31;;;;;;;2.40;2.10;;;28.80;61.80;;;;;;5034770;28;20283;-72
2023/08/24 03:01:56;;;;;;;2.63;2.20;;;28.80;61.80;;;;;;5034178;28;20204;-72
2023/08/24 03:04:22;;;;;;;2.27;2.07;;;28.80;61.80;;;;;;5034730;28;20176;-72
2023/08/24 03:06:47;;;;;;;2.10;1.90;;;28.80;61.80;;;;;;5034432;28;20345;-72
2023/08/24 03:09:13;;;;;;;2.70;2.10;;;28.80;61.80;;;;;;5034374;28;20226;-72
2023/08/24 03:11:38;;;;;;;2.63;2.43;;;28.70;61.70;;;;;;5034333;28;20607;-72
2023/08/24 03:14:04;;;;;;;2.30;2.10;;;28.80;61.80;;;;;;5034197;28;20178;-72
2023/08/24 03:16:29;;;;;;;2.10;1.90;;;28.80;61.80;;;;;;5034159;28;20176;-72
2023/08/24 03:18:55;;;;;;;1.90;1.80;;;28.70;61.70;;;;;;5034292;28;20672;-72
2023/08/24 03:21:21;;;;;;;1.90;1.80;;;28.80;61.90;;;;;;5034028;28;20215;-72
2023/08/24 03:23:46;;;;;;;2.30;2.10;;;28.70;61.80;;;;;;5034250;28;20207;-71
2023/08/24 03:26:12;;;;;;;2.20;2.00;;;28.80;61.90;;;;;;5034021;28;20171;-72
2023/08/24 03:28:38;;;;;;;2.23;1.90;;;28.70;61.80;;;;;;5033924;28;20545;-72
2023/08/24 03:31:03;;;;;;;1.93;1.83;;;28.70;61.80;;;;;;5034027;28;20245;-72
2023/08/24 03:33:30;;;;;;;1.90;1.80;;;28.70;61.80;;;;;;5034046;28;20267;-72
2023/08/24 03:35:56;;;;;;;2.20;2.00;;;28.70;61.80;;;;;;5034093;28;20180;-72
2023/08/24 03:38:21;;;;;;;2.40;2.20;;;28.70;61.80;;;;;;5033806;28;20919;-71
2023/08/24 03:40:47;;;;;;;2.37;2.07;;;28.70;61.80;;;;;;5033548;28;20685;-72
2023/08/24 03:43:12;;;;;;;2.53;2.33;;;28.70;61.80;;;;;;5049065;28;20172;-72
2023/08/24 03:45:38;;;;;;;2.17;1.97;;;28.70;61.80;;;;;;5033629;28;20655;-72
2023/08/24 03:48:04;;;;;;;2.53;2.10;;;28.70;61.80;;;;;;5033751;28;20172;-72
2023/08/24 03:50:29;;;;;;;2.20;2.00;;;28.70;61.80;;;;;;5033439;28;20270;-72
2023/08/24 03:52:55;;;;;;;2.60;1.93;;;28.70;61.80;;;;;;5048775;28;20184;-72
2023/08/24 03:55:21;;;;;;;2.40;2.20;;;28.70;61.90;;;;;;5015886;28;20180;-72
2023/08/24 03:57:47;;;;;;;2.30;2.10;;;28.70;61.80;;;;;;5033399;28;20183;-73
2023/08/24 04:00:14;;;;;;;2.40;2.17;;;28.70;61.90;;;;;;5048658;28;20469;-72
2023/08/24 04:02:43;;;;;;;2.10;1.90;;;28.70;61.90;;;;;;5033313;28;20187;-72
2023/08/24 04:05:08;;;;;;;2.03;1.83;;;28.70;61.90;;;;;;5033256;28;20768;-72
2023/08/24 04:07:36;;;;;;;2.27;2.07;;;28.70;61.90;;;;;;5033617;28;20414;-72
2023/08/24 04:10:04;;;;;;;2.00;1.70;;;28.70;61.90;;;;;;5033190;28;20580;-72
2023/08/24 04:12:30;;;;;;;1.90;1.80;;;28.70;61.90;;;;;;5033431;28;20825;-72
2023/08/24 04:14:57;;;;;;;2.43;2.23;;;28.70;61.90;;;;;;5015542;28;20552;-72
2023/08/24 04:17:23;;;;;;;2.63;2.10;;;28.70;61.90;;;;;;5033161;28;20418;-72
2023/08/24 04:19:48;;;;;;;2.10;1.70;;;28.70;61.90;;;;;;5033058;28;20442;-71
2023/08/24 04:22:14;;;;;;;2.33;2.13;;;28.70;61.90;;;;;;5032984;28;20203;-72
2023/08/24 04:24:40;;;;;;;1.97;1.87;;;28.70;61.90;;;;;;5032999;28;20168;-72
2023/08/24 04:27:06;;;;;;;1.90;1.80;;;28.70;61.90;;;;;;5032878;28;20168;-72
2023/08/24 04:29:32;;;;;;;2.00;1.80;;;28.70;61.90;;;;;;5032952;28;20176;-72
2023/08/24 04:31:57;;;;;;;2.20;2.00;;;28.70;61.90;;;;;;5032812;28;20668;-72
2023/08/24 04:34:23;;;;;;;1.93;1.83;;;28.70;62.00;;;;;;5033215;28;20176;-72
2023/08/24 04:36:49;;;;;;;2.70;2.50;;;28.70;62.00;;;;;;5032826;28;20176;-72
2023/08/24 04:39:15;;;;;;;2.00;1.90;;;28.70;61.90;;;;;;5032600;28;20180;-72
2023/08/24 04:41:40;;;;;;;2.17;1.97;;;28.70;62.00;;;;;;5032878;28;20872;-71
2023/08/24 04:44:07;;;;;;;2.20;2.00;;;28.70;62.00;;;;;;5032594;28;20263;-72
2023/08/24 04:46:33;;;;;;;2.40;2.20;;;28.70;62.00;;;;;;5033049;28;20255;-72
2023/08/24 04:48:59;;;;;;;2.40;2.23;;;28.70;62.00;;;;;;5014995;28;20959;-72
2023/08/24 04:51:24;;;;;;;2.03;1.83;;;28.70;62.00;;;;;;5032637;28;20565;-71
2023/08/24 04:53:50;;;;;;;2.40;2.20;;;28.70;62.00;;;;;;5032814;28;20175;-72
2023/08/24 04:56:18;;;;;;;2.40;2.20;;;28.70;62.00;;;;;;5032726;28;20172;-71
2023/08/24 04:58:53;;;;;;;2.33;1.70;;;28.70;62.00;;;;;;5032129;28;20258;-72
2023/08/24 05:01:19;;;;;;;1.83;1.73;;;28.70;62.00;;;;;;5032217;28;20835;-72
2023/08/24 05:03:45;;;;;;;2.30;2.10;;;28.70;62.00;;;;;;5032385;28;20402;-71
2023/08/24 05:06:10;;;;;;;1.97;1.87;;;28.70;62.00;;;;;;5032493;28;20175;-72
2023/08/24 05:08:36;;;;;;;2.00;1.87;;;28.70;62.00;;;;;;5014675;28;20179;-72
2023/08/24 05:11:01;;;;;;;2.27;1.50;;;28.70;62.00;;;;;;5032394;28;20197;-72
2023/08/24 05:13:27;;;;;;;2.17;2.00;;;28.70;62.00;;;;;;5032372;28;20172;-72
2023/08/24 05:15:52;;;;;;;2.23;2.00;;;28.70;62.00;;;;;;5032304;28;20176;-72
2023/08/24 05:18:18;;;;;;;2.47;2.10;;;28.70;62.00;;;;;;5032225;28;20175;-72
2023/08/24 05:20:43;;;;;;;1.83;1.57;;;28.70;62.00;;;;;;5032252;28;20209;-72
2023/08/24 05:23:09;;;;;;;1.97;1.87;;;28.70;62.00;;;;;;5032356;28;20545;-72
2023/08/24 05:25:35;;;;;;;2.20;2.00;;;28.70;62.00;;;;;;5030715;28;20237;-72
2023/08/24 05:28:00;;;;;;;2.60;1.97;;;28.70;62.00;;;;;;5032322;28;20178;-71
2023/08/24 05:30:29;;;;;;;1.80;1.70;;;28.70;62.00;;;;;;5032078;28;20226;-71
2023/08/24 05:32:54;;;;;;;2.10;1.90;;;28.70;62.00;;;;;;5032141;28;20668;-72
2023/08/24 05:35:22;;;;;;;2.30;2.10;;;28.70;61.90;;;;;;5032025;28;20407;-71
2023/08/24 05:37:47;;;;;;;2.17;1.97;;;28.70;61.90;;;;;;5032284;28;20255;-73
2023/08/24 05:40:13;;;;;;;1.77;1.67;;;28.70;62.00;;;;;;5031890;28;20545;-72
2023/08/24 05:42:39;;;;;;;1.90;1.70;;;28.70;61.90;;;;;;5032204;28;20534;-72
2023/08/24 05:45:05;;;;;;;1.80;1.70;;;28.70;61.90;;;;;;5032189;28;20179;-72
2023/08/24 05:47:30;;;;;;;1.90;1.80;;;28.70;61.90;;;;;;5014497;28;20176;-73
2023/08/24 05:49:56;;;;;;;2.03;1.67;;;28.80;62.00;;;;;;5031978;28;20847;-71
2023/08/24 05:52:22;;;;;;;1.87;1.67;;;28.70;61.90;;;;;;5031985;28;20191;-71
2023/08/24 05:54:47;;;;;;;1.97;1.87;;;28.70;61.90;;;;;;5032138;28;20549;-73
2023/08/24 05:57:13;;;;;;;1.90;1.80;;;28.70;62.00;;;;;;5032207;28;20190;-72
2023/08/24 05:59:38;;;;;;;1.80;1.70;;;28.70;61.90;;;;;;5031882;28;20204;-72
2023/08/24 06:02:04;;;;;;;2.10;1.90;;;28.80;62.00;;;;;;5031791;28;20207;-73
2023/08/24 06:04:30;;;;;;;2.20;2.00;;;28.80;62.00;;;;;;5032000;28;20648;-72
2023/08/24 06:06:56;;;;;;;2.20;2.00;;;28.80;62.00;;;;;;5031800;28;20218;-72
2023/08/24 06:09:22;;;;;;;2.13;1.97;;;28.70;61.90;;;;;;5014296;28;20419;-72
2023/08/24 06:11:47;;;;;;;2.10;1.90;;;28.80;62.00;;;;;;5033214;28;20672;-72
2023/08/24 06:14:13;;;;;;;2.30;2.10;;;28.80;62.00;;;;;;5035283;28;20168;-72
2023/08/24 06:16:38;;;;;;;2.20;2.00;;;28.80;62.00;;;;;;5035338;28;20168;-72
2023/08/24 06:19:04;;;;;;;1.97;1.80;;;28.80;62.00;;;;;;5035380;28;20167;-71
2023/08/24 06:21:29;;;;;;;2.00;1.90;;;28.80;62.00;;;;;;5035217;28;20195;-73
2023/08/24 06:23:55;;;;;;;2.13;1.93;;;28.80;62.00;;;;;;5035344;28;20245;-72
2023/08/24 06:26:20;;;;;;;2.33;2.13;;;28.80;62.00;;;;;;5017714;28;20167;-72
2023/08/24 06:28:47;;;;;;;1.90;1.80;;;28.80;62.00;;;;;;5017724;28;20175;-72
2023/08/24 06:31:13;;;;;;;2.30;2.10;;;28.80;62.00;;;;;;5035235;28;20551;-71
2023/08/24 06:33:38;;;;;;;2.00;1.90;;;28.80;62.00;;;;;;5035403;28;20416;-72
2023/08/24 06:36:11;;;;;;;2.07;1.97;;;28.80;62.00;;;;;;5017643;28;20183;-72
2023/08/24 06:38:37;;;;;;;1.93;1.83;;;28.80;62.00;;;;;;5035268;28;20560;-72
2023/08/24 06:41:03;;;;;;;2.10;1.90;;;28.80;62.00;;;;;;5034812;28;20458;-72
2023/08/24 06:43:28;;;;;;;2.17;1.97;;;28.80;62.00;;;;;;5035123;28;20175;-71
2023/08/24 06:45:57;;;;;;;2.03;1.93;;;28.80;62.00;;;;;;5034969;28;20595;-71
2023/08/24 06:48:23;;;;;;;1.93;1.83;;;28.80;61.90;;;;;;5034877;28;20168;-72
2023/08/24 06:50:49;;;;;;;2.07;1.90;;;28.80;62.00;;;;;;5034754;28;20430;-71
2023/08/24 06:53:17;;;;;;;1.90;1.80;;;28.80;62.00;;;;;;5034937;28;20429;-73
2023/08/24 06:55:43;;;;;;;1.73;1.63;;;28.80;61.90;;;;;;5034957;28;20684;-73
2023/08/24 06:58:09;;;;;;;1.83;1.73;;;28.80;61.90;;;;;;5034717;28;20399;-71
2023/08/24 07:00:35;;;;;;;2.17;1.97;;;28.80;61.90;;;;;;5034550;28;20218;-71
2023/08/24 07:03:01;;;;;;;2.37;2.17;;;28.80;62.00;;;;;;5034613;28;20188;-72
2023/08/24 07:05:26;;;;;;;2.10;1.90;;;28.80;61.90;;;;;;5016657;28;20460;-72
2023/08/24 07:07:53;;;;;;;2.40;1.87;;;28.80;61.90;;;;;;5034450;28;20198;-72
2023/08/24 07:10:19;;;;;;;2.13;1.80;;;28.80;62.00;;;;;;5034416;28;20179;-73
2023/08/24 07:12:45;;;;;;;2.03;1.73;;;28.80;62.00;;;;;;5034331;28;20407;-72
2023/08/24 07:15:14;;;;;;;2.40;2.20;;;28.80;62.00;;;;;;5034417;28;20175;-72
2023/08/24 07:17:40;;;;;;;1.90;1.80;;;28.80;61.90;;;;;;5034712;28;20180;-71
2023/08/24 07:20:08;;;;;;;2.60;2.40;;;28.80;61.90;;;;;;5034386;28;20465;-73
2023/08/24 07:22:34;;;;;;;2.07;1.87;;;28.80;61.90;;;;;;5033764;28;20410;-73
2023/08/24 07:25:00;;;;;;;2.97;2.43;;;28.80;61.90;;;;;;5033904;28;21040;-72
2023/08/24 07:27:28;;;;;;;1.90;1.77;;;28.80;61.90;;;;;;5034116;28;20917;-73
2023/08/24 07:29:54;;;;;;;1.80;1.67;;;28.80;61.90;;;;;;5033406;28;20406;-71
2023/08/24 07:32:19;;;;;;;2.00;1.80;;;28.80;61.90;;;;;;5023156;28;20964;-71
2023/08/24 07:34:45;;;;;;;1.90;1.80;;;28.80;61.90;;;;;;5013963;28;20184;-72
2023/08/24 07:37:10;;;;;;;2.20;1.93;;;28.80;62.00;;;;;;5014128;28;20177;-72
2023/08/24 07:39:37;;;;;;;1.87;1.77;;;28.80;62.00;;;;;;5013879;28;20628;-73
2023/08/24 07:42:03;;;;;;;1.97;1.87;;;28.80;61.90;;;;;;5014056;28;20271;-72
2023/08/24 07:44:29;;;;;;;2.20;2.00;;;28.80;62.00;;;;;;5013977;28;20411;-71
2023/08/24 07:46:55;;;;;;;2.10;1.90;;;28.80;62.00;;;;;;5013832;28;20180;-72
2023/08/24 07:49:20;;;;;;;2.03;1.93;;;28.80;61.90;;;;;;5013800;28;20165;-72
2023/08/24 07:51:47;;;;;;;2.17;2.00;;;28.80;62.00;;;;;;5013618;28;20839;-71
2023/08/24 07:54:13;;;;;;;1.67;1.57;;;28.80;62.00;;;;;;5013725;28;20172;-71
2023/08/24 07:56:38;;;;;;;1.90;1.80;;;28.80;62.00;;;;;;5013591;28;20928;-72
2023/08/24 07:59:04;;;;;;;2.60;2.40;;;28.80;62.80;;;;;;5013584;28;20641;-72
2023/08/24 08:01:30;;;;;;;1.90;1.80;;;28.80;62.00;;;;;;5013218;28;20689;-72
2023/08/24 08:03:56;;;;;;;2.00;1.80;;;28.80;62.00;;;;;;5013474;28;20252;-73
2023/08/24 08:06:24;;;;;;;1.93;1.83;;;28.80;62.00;;;;;;5013443;28;20172;-73
2023/08/24 08:08:51;;;;;;;2.03;1.83;;;28.80;62.00;;;;;;5013787;28;20180;-73
2023/08/24 08:11:17;;;;;;;4.70;2.20;;;28.80;62.00;;;;;;4995377;28;20458;-72
2023/08/24 08:13:42;;;;;;;4.23;2.20;;;28.80;62.00;;;;;;5013329;28;20407;-71
2023/08/24 08:16:08;;;;;;;2.30;2.10;;;28.80;62.00;;;;;;5013393;28;20180;-72
2023/08/24 08:18:35;;;;;;;2.13;1.90;;;28.90;62.00;;;;;;5012929;28;20185;-72
2023/08/24 08:21:08;;;;;;;2.37;2.17;;;28.80;62.00;;;;;;5015965;28;20211;-71
2023/08/24 08:23:33;;;;;;;2.30;2.13;;;28.80;61.90;;;;;;5032828;28;20398;-72
2023/08/24 08:25:59;;;;;;;2.80;2.60;;;28.80;61.90;;;;;;5032897;28;20406;-72
2023/08/24 08:28:25;;;;;;;2.83;2.63;;;28.80;61.90;;;;;;5032892;28;20172;-71
2023/08/24 08:30:50;;;;;;;2.90;2.70;;;28.80;61.90;;;;;;5048130;28;20196;-71
2023/08/24 08:33:16;;;;;;;2.60;2.40;;;28.80;62.00;;;;;;5015045;28;20217;-71
2023/08/24 08:35:41;;;;;;;2.93;2.73;;;28.80;61.90;;;;;;5031998;28;20167;-72
2023/08/24 08:38:07;;;;;;;2.73;2.53;;;28.80;61.90;;;;;;5032441;28;20167;-71
2023/08/24 08:40:37;;;;;;;3.50;2.60;;;28.80;61.90;;;;;;5032883;28;20208;-72
2023/08/24 08:43:03;;;;;;;3.00;2.80;;;28.80;61.90;;;;;;5032852;28;20544;-72
2023/08/24 08:45:29;;;;;;;3.23;2.80;;;28.80;61.90;;;;;;5032578;28;20417;-71
2023/08/24 08:48:03;;;;;;;2.77;2.57;;;28.80;61.90;;;;;;5032611;28;20425;-72
2023/08/24 08:50:31;;;;;;;3.60;3.30;;;28.90;61.90;;;;;;5032456;28;20427;-72
2023/08/24 08:52:58;;;;;;;3.00;2.70;;;28.90;61.80;;;;;;5032535;28;20779;-71
2023/08/24 08:55:25;;;;;;;3.67;3.37;;;28.80;61.50;;;;;;5032335;28;20418;-72
2023/08/24 08:57:53;;;;;;;3.90;3.30;;;28.90;61.60;;;;;;5032665;28;20907;-71
2023/08/24 09:00:19;;;;;;;3.13;2.93;;;28.90;61.50;;;;;;5032257;28;20454;-72
2023/08/24 09:02:47;;;;;;;3.87;3.47;;;28.90;61.50;;;;;;5031893;28;20425;-72
2023/08/24 09:05:14;;;;;;;4.47;3.50;;;28.90;61.40;;;;;;5032302;28;20421;-71
2023/08/24 09:07:40;;;;;;;3.80;3.50;;;28.90;61.30;;;;;;5047793;28;20428;-71
2023/08/24 09:10:07;;;;;;;6.30;3.50;;;28.90;61.20;;;;;;5032446;28;20411;-71
2023/08/24 09:12:33;;;;;;;4.10;3.70;;;28.90;61.20;;;;;;5014702;28;20204;-71
2023/08/24 09:14:59;;;;;;;3.70;3.40;;;28.80;61.10;;;;;;5032330;28;20440;-72
2023/08/24 09:17:24;;;;;;;3.50;3.20;;;28.90;61.20;;;;;;5032344;28;20449;-71
2023/08/24 09:19:51;;;;;;;3.63;3.40;;;28.90;61.10;;;;;;5032445;28;20191;-72
2023/08/24 09:22:17;;;;;;;3.57;3.27;;;28.90;61.20;;;;;;5032115;28;20217;-71
2023/08/24 09:24:44;;;;;;;3.67;3.40;;;28.90;61.30;;;;;;5032286;28;20442;-72
2023/08/24 09:27:18;;;;;;;3.60;3.30;;;28.90;61.30;;;;;;5032506;28;20522;-72
2023/08/24 09:29:51;;;;;;;3.57;3.33;;;28.90;61.30;;;;;;5047677;28;20965;-72
2023/08/24 09:32:33;;;;;;;3.83;3.53;;;28.90;61.40;;;;;;5032000;28;20418;-71
2023/08/24 09:35:07;;;;;;;3.50;3.30;;;28.90;61.30;;;;;;5032272;28;20415;-71
2023/08/24 09:37:36;;;;;;;3.80;3.50;;;28.90;61.20;;;;;;5014470;28;20428;-72
2023/08/24 09:40:11;;;;;;;3.37;3.17;;;28.90;61.30;;;;;;5032171;28;20481;-72
2023/08/24 09:42:41;;;;;;;3.50;3.30;;;28.90;61.20;;;;;;5032337;28;20978;-71
2023/08/24 09:45:10;;;;;;;3.23;2.97;;;28.90;61.20;;;;;;5032646;28;20402;-72
2023/08/24 09:47:36;;;;;;;3.70;3.40;;;28.90;61.30;;;;;;5036082;28;20398;-72
2023/08/24 09:50:03;;;;;;;3.63;3.37;;;28.90;61.40;;;;;;5035950;28;20406;-73
2023/08/24 09:52:34;;;;;;;3.57;3.27;;;28.90;61.40;;;;;;5036063;28;20497;-73
2023/08/24 09:55:07;;;;;;;3.80;3.47;;;28.90;61.40;;;;;;5036065;28;20408;-72
2023/08/24 09:57:42;;;;;;;3.73;3.43;;;28.90;61.50;;;;;;5035900;28;20499;-72
2023/08/24 10:00:14;;;;;;;3.77;3.50;;;28.90;61.40;;;;;;5035816;28;20873;-73
2023/08/24 10:02:50;;;;;;;3.33;3.03;;;28.90;62.30;;;;;;5035671;28;20916;-73
2023/08/24 10:05:20;;;;;;;3.83;3.53;;;28.90;61.40;;;;;;5035648;28;20950;-73
2023/08/24 10:07:52;;;;;;;3.87;3.57;;;28.90;61.50;;;;;;5035695;28;20452;-73
2023/08/24 10:10:21;;;;;;;4.00;3.70;;;28.90;61.50;;;;;;5035475;28;20456;-72
2023/08/24 10:12:51;;;;;;;3.30;3.10;;;28.90;61.40;;;;;;5035899;28;20969;-72
2023/08/24 10:15:18;;;;;;;3.60;3.33;;;28.90;61.50;;;;;;5035409;28;20413;-72
2023/08/24 10:17:44;;;;;;;3.73;3.43;;;28.90;62.30;;;;;;5035617;28;20938;-73
2023/08/24 10:20:11;;;;;;;3.80;3.50;;;28.90;61.40;;;;;;5035232;28;20477;-72
2023/08/24 10:22:39;;;;;;;3.83;3.53;;;28.90;61.50;;;;;;5035389;28;20406;-72
2023/08/24 10:25:07;;;;;;;5.60;4.30;;;28.90;61.50;;;;;;5035317;28;20406;-73
2023/08/24 10:27:32;;;;;;;3.70;3.40;;;28.90;61.50;;;;;;5035408;28;20409;-73
2023/08/24 10:29:58;;;;;;;3.30;3.10;;;28.90;61.50;;;;;;5035154;28;20402;-72
2023/08/24 10:32:25;;;;;;;3.53;3.20;;;28.90;61.40;;;;;;5035030;28;20199;-72
2023/08/24 10:34:51;;;;;;;3.73;3.43;;;28.90;61.40;;;;;;5035129;28;20497;-72
2023/08/24 10:37:25;;;;;;;3.40;3.10;;;28.90;61.50;;;;;;5035153;28;20410;-72
2023/08/24 10:39:51;;;;;;;3.40;3.10;;;28.90;61.40;;;;;;5035031;28;20970;-72
2023/08/24 10:42:17;;;;;;;4.10;3.80;;;28.90;61.50;;;;;;5034885;28;20426;-72
2023/08/24 10:44:46;;;;;;;4.10;3.80;;;28.90;61.50;;;;;;5034936;28;20167;-71
2023/08/24 10:47:19;;;;;;;3.30;3.00;;;28.90;61.50;;;;;;5034952;28;20170;-72
2023/08/24 10:49:56;;;;;;;3.67;3.40;;;28.90;61.50;;;;;;5034980;28;20383;-73
2023/08/24 10:52:31;;;;;;;3.57;3.27;;;28.90;61.50;;;;;;5034890;28;20422;-72
2023/08/24 10:54:57;;;;;;;3.43;2.90;;;28.90;61.50;;;;;;5035271;28;20764;-73
2023/08/24 10:57:34;;;;;;;3.23;3.03;;;28.90;61.50;;;;;;5034497;28;20403;-73
2023/08/24 11:00:06;;;;;;;3.50;3.13;;;28.90;61.50;;;;;;5035051;28;20229;-73
2023/08/24 11:02:50;;;;;;;3.20;3.00;;;28.90;61.50;;;;;;5035338;28;20430;-73
2023/08/24 11:05:30;;;;;;;3.60;3.10;;;28.90;61.50;;;;;;5034910;28;20817;-73
2023/08/24 11:07:57;;;;;;;3.73;3.43;;;28.90;61.50;;;;;;5034636;28;20505;-72
2023/08/24 11:10:34;;;;;;;3.70;3.40;;;28.90;61.50;;;;;;5034640;28;20513;-72
2023/08/24 11:13:06;;;;;;;3.03;2.83;;;28.90;61.50;;;;;;5035001;28;20394;-72
2023/08/24 11:15:40;;;;;;;3.40;3.20;;;28.90;61.50;;;;;;5034524;28;20881;-72
2023/08/24 11:18:12;;;;;;;3.10;2.90;;;28.90;61.50;;;;;;5034577;28;20967;-72
2023/08/24 11:20:45;;;;;;;3.10;2.90;;;28.90;61.50;;;;;;5034436;28;20512;-72
2023/08/24 11:23:12;;;;;;;3.80;3.50;;;28.90;61.50;;;;;;5034245;28;20395;-72
2023/08/24 11:25:38;;;;;;;3.70;3.40;;;28.90;61.50;;;;;;5034212;28;20923;-72
2023/08/24 11:28:04;;;;;;;3.27;3.07;;;28.90;61.50;;;;;;5034153;28;20406;-72
2023/08/24 11:30:34;;;;;;;2.97;2.77;;;28.90;61.50;;;;;;5033969;28;20527;-71
2023/08/24 11:33:00;;;;;;;3.43;3.13;;;28.90;61.50;;;;;;5033914;28;20403;-72
2023/08/24 11:35:26;;;;;;;3.30;3.10;;;29.00;61.60;;;;;;5016161;28;20469;-71
2023/08/24 11:37:53;;;;;;;3.70;3.40;;;29.00;62.40;;;;;;5034495;28;20966;-71
2023/08/24 11:40:26;;;;;;;3.07;2.83;;;28.90;61.50;;;;;;5034112;28;20464;-72
2023/08/24 11:42:55;;;;;;;2.80;2.60;;;28.90;61.50;;;;;;5033694;28;20390;-72
2023/08/24 11:45:22;;;;;;;3.70;3.40;;;28.90;61.50;;;;;;5016042;28;20846;-71
2023/08/24 11:47:48;;;;;;;3.40;3.10;;;28.90;61.50;;;;;;5033660;28;20433;-72
2023/08/24 11:50:14;;;;;;;3.40;3.10;;;28.90;61.50;;;;;;5033528;28;20414;-72
2023/08/24 11:52:41;;;;;;;3.33;3.13;;;29.00;61.60;;;;;;5033689;28;20417;-71
2023/08/24 11:55:08;;;;;;;2.70;2.50;;;28.90;61.50;;;;;;5033456;28;20417;-71
2023/08/24 11:57:35;;;;;;;3.00;2.80;;;28.90;61.50;;;;;;5033634;28;20410;-72
2023/08/24 12:00:01;;;;;;;3.40;3.20;;;28.90;61.60;;;;;;5033327;28;20446;-72
2023/08/24 12:02:28;;;;;;;3.30;3.00;;;28.90;61.50;;;;;;5033224;28;21016;-70
2023/08/24 12:04:53;;;;;;;2.93;2.73;;;29.00;61.60;;;;;;5033279;28;20497;-70
2023/08/24 12:07:21;;;;;;;4.03;3.30;;;29.00;61.60;;;;;;5015819;28;20891;-72
2023/08/24 12:09:47;;;;;;;3.10;2.90;;;29.00;61.60;;;;;;5014509;28;20528;-72
2023/08/24 12:12:17;;;;;;;2.90;2.70;;;29.00;61.60;;;;;;5033485;28;20427;-70
2023/08/24 12:14:44;;;;;;;2.80;2.60;;;29.00;61.60;;;;;;5033037;28;20415;-72
2023/08/24 12:17:10;;;;;;;3.27;3.00;;;29.00;61.60;;;;;;5031650;28;20419;-72
2023/08/24 12:19:36;;;;;;;3.90;3.40;;;29.00;61.60;;;;;;5032972;28;20417;-71
2023/08/24 12:22:02;;;;;;;3.30;3.07;;;29.00;61.60;;;;;;5033283;28;20438;-71
2023/08/24 12:24:28;;;;;;;3.07;2.87;;;29.00;61.60;;;;;;5019153;28;20675;-72
2023/08/24 12:27:02;;;;;;;3.20;3.00;;;29.00;61.60;;;;;;5012844;28;20494;-72
2023/08/24 12:29:27;;;;;;;3.20;3.00;;;29.00;61.60;;;;;;4995437;28;20168;-70
2023/08/24 12:31:58;;;;;;;3.07;2.77;;;29.00;61.60;;;;;;5013056;28;20454;-71
2023/08/24 12:34:23;;;;;;;3.20;2.90;;;29.00;61.60;;;;;;5012933;28;20152;-72
2023/08/24 12:36:49;;;;;;;3.33;3.13;;;29.00;61.60;;;;;;5012752;28;20928;-72
2023/08/24 12:39:15;;;;;;;2.80;2.60;;;29.00;61.60;;;;;;5012093;28;20268;-73
2023/08/24 12:41:41;;;;;;;3.30;3.00;;;29.00;61.60;;;;;;4995246;28;20765;-72
2023/08/24 12:44:07;;;;;;;2.90;2.70;;;29.00;61.70;;;;;;5013104;28;20172;-72
2023/08/24 12:46:36;;;;;;;4.73;3.23;;;29.00;61.60;;;;;;5013230;28;20176;-72